Time;durP1;ratioP1;P1;durP2;ratioP2;P2;SDS_P1;SDS_P2;PMS_P1;PMS_P2;Temp;Humidity;BMP_temperature;BMP_pressure;BME280_temperature;BME280_humidity;BME280_pressure;Samples;Min_cycle;Max_cycle;Signal;HPM_P1;HPM_P2
2020/12/14 00:02:11;;;;;;;5.00;2.83;;;4.40;86.40;;;;;;5058247;28;20469;-89
2020/12/14 00:04:38;;;;;;;5.33;3.33;;;4.50;86.60;;;;;;5076794;28;20101;-89
2020/12/14 00:07:04;;;;;;;6.07;3.40;;;4.50;86.60;;;;;;5057712;28;20024;-89
2020/12/14 00:09:31;;;;;;;5.43;3.07;;;4.50;86.10;;;;;;5076629;28;20028;-89
2020/12/14 00:12:01;;;;;;;5.27;3.13;;;4.50;85.70;;;;;;5058791;28;20056;-86
2020/12/14 00:14:27;;;;;;;4.43;2.97;;;4.40;85.50;;;;;;5058879;28;20082;-89
2020/12/14 00:16:53;;;;;;;4.17;2.90;;;4.50;85.40;;;;;;5076090;28;20035;-89
2020/12/14 00:19:19;;;;;;;8.37;3.73;;;4.40;85.50;;;;;;5058116;28;20032;-89
2020/12/14 00:21:44;;;;;;;5.60;3.00;;;4.30;85.10;;;;;;5076432;28;20408;-89
2020/12/14 00:24:10;;;;;;;5.60;3.30;;;4.30;85.60;;;;;;5057650;28;20025;-89
2020/12/14 00:26:36;;;;;;;5.03;2.90;;;4.20;85.30;;;;;;5058471;28;20063;-89
2020/12/14 00:29:01;;;;;;;6.53;3.10;;;4.20;85.70;;;;;;5057052;28;20033;-89
2020/12/14 00:31:27;;;;;;;4.17;3.00;;;4.20;85.90;;;;;;5076140;28;20101;-89
2020/12/14 00:33:52;;;;;;;4.33;3.10;;;4.20;85.80;;;;;;5057882;28;20021;-89
2020/12/14 00:36:18;;;;;;;6.37;3.10;;;4.20;85.90;;;;;;5057989;28;20029;-89
2020/12/14 00:38:45;;;;;;;5.97;3.00;;;4.10;86.10;;;;;;5058362;28;20051;-89
2020/12/14 00:41:17;;;;;;;5.73;3.30;;;4.10;85.80;;;;;;5075710;28;20032;-89
2020/12/14 00:43:42;;;;;;;6.53;3.20;;;4.00;86.00;;;;;;5076136;28;20044;-89
2020/12/14 00:46:16;;;;;;;4.67;3.00;;;4.10;86.20;;;;;;5057986;28;20109;-89
2020/12/14 00:48:42;;;;;;;7.30;3.30;;;4.10;86.60;;;;;;5057964;28;20120;-89
2020/12/14 00:51:08;;;;;;;5.57;3.30;;;4.10;86.60;;;;;;5075449;28;20063;-89
2020/12/14 00:53:34;;;;;;;5.47;3.17;;;4.10;87.00;;;;;;5057810;28;20139;-89
2020/12/14 00:56:04;;;;;;;4.97;3.00;;;4.10;87.30;;;;;;5057557;28;20484;-85
2020/12/14 00:58:29;;;;;;;4.83;2.90;;;4.20;87.40;;;;;;5057780;28;20036;-89
2020/12/14 01:00:56;;;;;;;5.37;2.80;;;4.10;87.20;;;;;;5057925;28;20024;-89
2020/12/14 01:03:21;;;;;;;5.70;3.00;;;4.20;87.70;;;;;;5057742;28;20024;-89
2020/12/14 01:05:47;;;;;;;6.33;2.90;;;4.20;87.60;;;;;;5075502;28;20047;-89
2020/12/14 01:08:12;;;;;;;5.33;2.73;;;4.20;87.60;;;;;;5056638;28;20487;-88
2020/12/14 01:10:38;;;;;;;4.50;2.60;;;4.20;87.50;;;;;;5057938;28;20032;-89
2020/12/14 01:13:04;;;;;;;3.90;2.60;;;4.20;87.40;;;;;;5056406;28;20059;-89
2020/12/14 01:15:29;;;;;;;5.57;2.90;;;4.20;87.30;;;;;;5075089;28;20100;-89
2020/12/14 01:17:55;;;;;;;4.37;2.60;;;4.30;87.20;;;;;;5075108;28;20024;-89
2020/12/14 01:20:20;;;;;;;4.50;2.60;;;4.20;87.20;;;;;;5074163;28;20028;-89
2020/12/14 01:22:46;;;;;;;3.30;2.40;;;4.20;87.20;;;;;;5057163;28;20024;-89
2020/12/14 01:25:12;;;;;;;4.43;2.90;;;4.20;87.50;;;;;;5074172;28;20034;-89
2020/12/14 01:27:37;;;;;;;4.90;2.90;;;4.30;87.40;;;;;;5074665;28;20465;-89
2020/12/14 01:30:04;;;;;;;3.73;2.70;;;4.20;87.20;;;;;;5056203;28;20532;-86
2020/12/14 01:32:29;;;;;;;5.07;2.50;;;4.20;87.00;;;;;;5056932;28;20500;-89
2020/12/14 01:34:55;;;;;;;4.70;2.67;;;4.20;87.40;;;;;;5057118;28;20025;-90
2020/12/14 01:37:20;;;;;;;3.97;2.50;;;4.20;87.40;;;;;;5056756;28;20086;-89
2020/12/14 01:39:46;;;;;;;4.93;2.80;;;4.20;87.30;;;;;;5074398;28;20048;-89
2020/12/14 01:42:12;;;;;;;5.37;3.03;;;4.10;87.20;;;;;;5074069;28;20536;-89
2020/12/14 01:44:37;;;;;;;3.57;2.63;;;4.10;87.40;;;;;;5074919;28;20060;-89
2020/12/14 01:47:03;;;;;;;4.30;2.70;;;4.20;87.60;;;;;;5057057;28;20457;-87
2020/12/14 01:49:32;;;;;;;3.73;2.73;;;4.20;87.30;;;;;;5074688;28;20036;-89
2020/12/14 01:51:58;;;;;;;5.00;2.70;;;4.20;87.10;;;;;;5057779;28;20033;-88
2020/12/14 01:54:29;;;;;;;4.43;2.53;;;4.20;87.10;;;;;;5065868;28;20031;-89
2020/12/14 01:56:55;;;;;;;5.57;2.90;;;4.20;87.00;;;;;;5071889;28;20119;-88
2020/12/14 01:59:22;;;;;;;3.67;2.30;;;4.30;86.90;;;;;;5089260;28;20604;-88
2020/12/14 02:01:48;;;;;;;5.43;2.70;;;4.30;86.70;;;;;;5073471;28;20031;-87
2020/12/14 02:04:13;;;;;;;5.17;2.70;;;4.20;86.50;;;;;;5073517;28;20016;-89
2020/12/14 02:06:39;;;;;;;5.57;2.53;;;4.20;86.70;;;;;;5090037;28;20052;-88
2020/12/14 02:09:06;;;;;;;3.70;2.23;;;4.20;86.80;;;;;;5072112;28;20035;-86
2020/12/14 02:11:31;;;;;;;4.10;2.47;;;4.20;86.70;;;;;;5068090;28;20028;-89
2020/12/14 02:13:57;;;;;;;5.70;2.53;;;4.20;86.60;;;;;;5056827;28;20101;-89
2020/12/14 02:16:23;;;;;;;5.60;2.53;;;4.10;86.50;;;;;;5072854;28;20048;-89
2020/12/14 02:18:49;;;;;;;3.10;2.37;;;4.10;86.40;;;;;;5056510;28;20078;-90
2020/12/14 02:21:16;;;;;;;3.87;2.57;;;4.00;86.40;;;;;;5056015;28;20476;-90
2020/12/14 02:23:42;;;;;;;4.40;2.20;;;4.00;86.30;;;;;;5056630;28;20025;-90
2020/12/14 02:26:08;;;;;;;3.57;2.50;;;3.90;86.20;;;;;;5055736;28;20103;-89
2020/12/14 02:28:33;;;;;;;4.07;2.50;;;3.80;86.80;;;;;;5074320;28;20043;-89
2020/12/14 02:30:59;;;;;;;3.87;2.30;;;3.80;86.90;;;;;;5056016;28;20032;-89
2020/12/14 02:33:25;;;;;;;4.90;2.70;;;3.80;87.10;;;;;;5056170;28;20376;-89
2020/12/14 02:35:50;;;;;;;4.73;2.53;;;3.80;87.20;;;;;;5056407;28;20032;-88
2020/12/14 02:38:16;;;;;;;4.17;2.80;;;3.80;87.30;;;;;;5055579;28;20041;-89
2020/12/14 02:40:42;;;;;;;4.30;2.10;;;3.70;87.40;;;;;;5056401;28;20363;-89
2020/12/14 02:43:07;;;;;;;4.00;2.23;;;3.70;87.70;;;;;;5073576;28;20530;-87
2020/12/14 02:45:33;;;;;;;4.10;2.30;;;3.80;87.60;;;;;;5074119;28;20028;-88
2020/12/14 02:47:59;;;;;;;4.03;2.50;;;3.80;87.50;;;;;;5073893;28;20024;-89
2020/12/14 02:50:25;;;;;;;3.97;2.33;;;3.80;87.40;;;;;;5055554;28;20081;-90
2020/12/14 02:52:50;;;;;;;4.33;2.20;;;3.80;87.00;;;;;;5077151;28;20028;-89
2020/12/14 02:55:16;;;;;;;3.50;2.20;;;3.80;86.30;;;;;;5060159;28;20076;-89
2020/12/14 02:57:41;;;;;;;4.60;2.20;;;3.80;86.40;;;;;;5060460;28;20434;-88
2020/12/14 03:00:07;;;;;;;4.73;2.63;;;3.70;86.20;;;;;;5059844;28;20524;-84
2020/12/14 03:02:33;;;;;;;2.90;2.03;;;3.70;86.10;;;;;;5059878;28;20031;-89
2020/12/14 03:04:58;;;;;;;2.87;1.80;;;3.70;86.30;;;;;;5059626;28;20051;-89
2020/12/14 03:07:24;;;;;;;6.53;2.40;;;3.70;86.50;;;;;;5059231;28;20841;-89
2020/12/14 03:09:50;;;;;;;3.53;2.30;;;3.70;86.60;;;;;;5059465;28;20465;-89
2020/12/14 03:12:15;;;;;;;3.53;2.27;;;3.70;86.50;;;;;;5076855;28;20060;-88
2020/12/14 03:14:41;;;;;;;5.10;2.30;;;3.70;86.60;;;;;;5059506;28;20025;-89
2020/12/14 03:17:06;;;;;;;4.70;2.27;;;3.70;86.60;;;;;;5059412;28;20090;-87
2020/12/14 03:19:32;;;;;;;2.63;1.90;;;3.70;86.50;;;;;;5059770;28;20461;-89
2020/12/14 03:21:58;;;;;;;3.23;2.00;;;3.60;86.60;;;;;;5059735;28;20028;-89
2020/12/14 03:24:24;;;;;;;3.57;2.30;;;3.60;86.60;;;;;;5059008;28;20446;-89
2020/12/14 03:26:50;;;;;;;3.13;2.00;;;3.60;86.40;;;;;;5076787;28;20048;-89
2020/12/14 03:29:17;;;;;;;4.80;2.47;;;3.60;85.80;;;;;;5058877;28;20028;-89
2020/12/14 03:31:43;;;;;;;3.77;2.37;;;3.60;85.90;;;;;;5059526;28;20032;-89
2020/12/14 03:34:09;;;;;;;4.47;2.20;;;3.50;86.10;;;;;;5058822;28;20036;-86
2020/12/14 03:36:34;;;;;;;4.60;2.23;;;3.40;86.50;;;;;;5059229;28;20028;-89
2020/12/14 03:39:00;;;;;;;4.70;1.93;;;3.50;86.50;;;;;;5059089;28;20389;-89
2020/12/14 03:41:26;;;;;;;3.53;2.27;;;3.40;85.80;;;;;;5058790;28;20647;-89
2020/12/14 03:43:52;;;;;;;4.97;2.27;;;3.30;85.30;;;;;;5059229;28;20031;-89
2020/12/14 03:46:18;;;;;;;3.53;2.00;;;3.30;85.60;;;;;;5058691;28;20533;-89
2020/12/14 03:48:44;;;;;;;7.87;2.97;;;3.30;85.60;;;;;;5059081;28;20029;-89
2020/12/14 03:51:11;;;;;;;6.00;2.40;;;3.20;85.40;;;;;;5058574;28;20086;-87
2020/12/14 03:53:37;;;;;;;4.77;2.67;;;3.20;85.20;;;;;;5059299;28;20542;-89
2020/12/14 03:56:03;;;;;;;2.77;2.00;;;3.10;85.50;;;;;;5059122;28;20029;-89
2020/12/14 03:58:29;;;;;;;2.40;1.67;;;3.20;85.50;;;;;;5058401;28;20737;-89
2020/12/14 04:00:54;;;;;;;3.20;2.13;;;3.20;85.70;;;;;;5058626;28;20024;-89
2020/12/14 04:03:22;;;;;;;3.50;2.23;;;3.20;85.70;;;;;;5057234;28;20031;-89
2020/12/14 04:05:48;;;;;;;5.27;2.30;;;3.20;85.70;;;;;;5059445;28;20064;-89
2020/12/14 04:08:13;;;;;;;3.20;2.27;;;3.20;86.10;;;;;;5058202;28;20508;-88
2020/12/14 04:10:39;;;;;;;3.63;2.00;;;3.20;85.80;;;;;;5059039;28;20089;-89
2020/12/14 04:13:04;;;;;;;3.97;2.50;;;3.20;86.00;;;;;;5076303;28;20399;-89
2020/12/14 04:15:30;;;;;;;3.20;2.20;;;3.20;86.10;;;;;;5057718;28;20324;-89
2020/12/14 04:17:56;;;;;;;3.30;2.30;;;3.20;86.20;;;;;;5058392;28;20031;-89
2020/12/14 04:20:21;;;;;;;3.57;2.10;;;3.30;86.10;;;;;;5057944;28;20103;-89
2020/12/14 04:22:48;;;;;;;3.47;2.20;;;3.30;86.20;;;;;;5058563;28;20035;-89
2020/12/14 04:25:15;;;;;;;2.93;2.30;;;3.30;86.20;;;;;;5058228;28;20035;-88
2020/12/14 04:27:41;;;;;;;4.40;2.23;;;3.30;86.40;;;;;;5076248;28;20037;-89
2020/12/14 04:30:07;;;;;;;3.63;2.10;;;3.30;86.40;;;;;;5076176;28;20101;-89
2020/12/14 04:32:33;;;;;;;4.80;2.20;;;3.30;86.90;;;;;;5057988;28;20024;-89
2020/12/14 04:34:58;;;;;;;3.73;2.30;;;3.40;86.90;;;;;;5058638;28;20050;-89
2020/12/14 04:37:24;;;;;;;3.07;2.03;;;3.40;86.70;;;;;;5058119;28;20047;-88
2020/12/14 04:39:49;;;;;;;2.50;1.90;;;3.40;86.70;;;;;;5058098;28;20053;-89
2020/12/14 04:42:15;;;;;;;4.53;2.43;;;3.40;86.60;;;;;;5057921;28;20037;-88
2020/12/14 04:44:42;;;;;;;5.33;2.40;;;3.40;86.90;;;;;;5076159;28;20028;-89
2020/12/14 04:47:12;;;;;;;3.80;2.13;;;3.40;86.70;;;;;;5058234;28;20044;-89
2020/12/14 04:49:41;;;;;;;2.87;2.10;;;3.40;87.20;;;;;;5058038;28;20029;-89
2020/12/14 04:52:08;;;;;;;3.43;2.30;;;3.50;87.50;;;;;;5058263;28;20052;-89
2020/12/14 04:54:34;;;;;;;3.03;1.90;;;3.50;87.40;;;;;;5058101;28;20569;-89
2020/12/14 04:57:08;;;;;;;2.93;2.03;;;3.50;87.90;;;;;;5058012;28;20032;-89
2020/12/14 04:59:35;;;;;;;3.50;2.07;;;3.50;87.00;;;;;;5057736;28;20174;-89
2020/12/14 05:02:10;;;;;;;3.53;1.90;;;3.50;87.40;;;;;;5057585;28;20025;-89
2020/12/14 05:04:37;;;;;;;3.23;1.93;;;3.50;87.30;;;;;;5053273;28;20033;-89
2020/12/14 05:07:03;;;;;;;2.63;2.03;;;3.50;87.30;;;;;;5058099;28;20167;-89
2020/12/14 05:09:29;;;;;;;4.23;1.97;;;3.50;87.00;;;;;;5057453;28;20039;-89
2020/12/14 05:11:54;;;;;;;3.17;1.90;;;3.60;87.40;;;;;;5075029;28;20052;-89
2020/12/14 05:14:23;;;;;;;3.17;1.90;;;3.60;87.00;;;;;;5056637;28;20028;-89
2020/12/14 05:16:50;;;;;;;4.27;1.80;;;3.60;86.90;;;;;;5058026;28;20033;-89
2020/12/14 05:19:26;;;;;;;3.43;1.87;;;3.70;87.00;;;;;;5074983;28;20030;-87
2020/12/14 05:21:58;;;;;;;5.27;1.90;;;3.70;87.10;;;;;;5075352;28;20024;-89
2020/12/14 05:24:26;;;;;;;4.40;2.10;;;3.80;87.00;;;;;;5074667;28;20063;-88
2020/12/14 05:26:53;;;;;;;4.57;1.80;;;3.70;86.80;;;;;;5056835;28;20119;-89
2020/12/14 05:29:30;;;;;;;5.03;2.10;;;3.70;87.00;;;;;;5056816;28;20037;-88
2020/12/14 05:32:08;;;;;;;3.23;1.73;;;3.80;87.10;;;;;;5057076;28;20024;-90
2020/12/14 05:34:37;;;;;;;2.80;1.80;;;3.80;86.80;;;;;;5056563;28;20036;-89
2020/12/14 05:37:06;;;;;;;3.80;1.73;;;3.80;86.80;;;;;;5057159;28;20468;-89
2020/12/14 05:39:31;;;;;;;4.33;1.80;;;3.80;86.50;;;;;;5056302;28;20048;-89
2020/12/14 05:42:08;;;;;;;3.00;1.83;;;3.80;86.70;;;;;;5057215;28;20032;-89
2020/12/14 05:44:34;;;;;;;4.70;1.87;;;3.80;86.70;;;;;;5056888;28;20020;-89
2020/12/14 05:47:00;;;;;;;4.63;1.90;;;3.80;86.50;;;;;;5056746;28;20186;-89
2020/12/14 05:49:26;;;;;;;3.77;1.90;;;3.80;86.90;;;;;;5056133;28;20095;-89
2020/12/14 05:52:00;;;;;;;2.63;1.97;;;3.90;86.80;;;;;;5074603;28;20060;-89
2020/12/14 05:54:34;;;;;;;3.53;1.83;;;3.90;86.50;;;;;;5074175;28;20377;-89
2020/12/14 05:57:03;;;;;;;4.23;1.90;;;4.00;86.70;;;;;;5057009;28;20389;-89
2020/12/14 05:59:34;;;;;;;3.40;1.70;;;4.10;86.40;;;;;;5056353;28;20119;-89
2020/12/14 06:02:05;;;;;;;3.97;1.80;;;4.10;86.20;;;;;;5057089;28;20037;-89
2020/12/14 06:04:34;;;;;;;2.45;1.92;;;4.10;86.50;;;;;;5056192;28;20070;-89
2020/12/14 06:07:04;;;;;;;5.07;1.77;;;4.20;86.40;;;;;;5056776;28;20537;-89
2020/12/14 06:09:36;;;;;;;3.57;2.00;;;4.20;86.40;;;;;;5056495;28;20029;-89
2020/12/14 06:12:10;;;;;;;6.90;1.98;;;4.20;86.20;;;;;;5056906;28;20185;-89
2020/12/14 06:14:39;;;;;;;4.17;1.60;;;4.20;86.20;;;;;;5073812;28;20048;-89
2020/12/14 06:17:11;;;;;;;2.63;1.77;;;4.20;86.00;;;;;;5056500;28;20028;-89
2020/12/14 06:19:38;;;;;;;3.83;1.73;;;4.30;86.50;;;;;;5056134;28;20580;-89
2020/12/14 06:22:09;;;;;;;3.50;1.73;;;4.30;86.10;;;;;;5056471;28;20033;-89
2020/12/14 06:24:35;;;;;;;3.30;2.03;;;4.30;85.80;;;;;;5073422;28;20462;-89
2020/12/14 06:27:07;;;;;;;3.53;1.90;;;4.30;85.90;;;;;;5055292;28;20388;-89
2020/12/14 06:29:34;;;;;;;5.20;1.75;;;4.40;86.50;;;;;;5056063;28;20119;-89
2020/12/14 06:32:01;;;;;;;4.03;2.10;;;4.40;85.90;;;;;;5079073;28;20086;-88
2020/12/14 06:34:32;;;;;;;3.00;1.70;;;4.40;85.50;;;;;;5069983;28;20032;-90
2020/12/14 06:37:03;;;;;;;3.70;2.03;;;4.40;85.80;;;;;;5073898;28;20076;-88
2020/12/14 06:39:35;;;;;;;2.90;1.83;;;4.40;85.60;;;;;;5089759;28;20051;-88
2020/12/14 06:42:09;;;;;;;2.72;1.70;;;4.40;85.40;;;;;;5091159;28;20039;-88
2020/12/14 06:44:36;;;;;;;3.43;2.00;;;4.40;85.40;;;;;;5074173;28;20078;-88
2020/12/14 06:47:15;;;;;;;2.80;2.00;;;4.50;85.40;;;;;;5092745;28;20027;-88
2020/12/14 06:49:42;;;;;;;3.27;1.90;;;4.60;85.60;;;;;;5091168;28;20020;-88
2020/12/14 06:52:09;;;;;;;3.83;1.90;;;4.60;85.50;;;;;;5068707;28;20032;-88
2020/12/14 06:54:45;;;;;;;3.03;1.80;;;4.60;85.20;;;;;;5059300;28;20111;-89
2020/12/14 06:57:12;;;;;;;4.37;2.10;;;4.60;85.00;;;;;;5056481;28;20048;-89
2020/12/14 06:59:38;;;;;;;2.17;1.60;;;4.60;85.00;;;;;;5055426;28;20035;-89
2020/12/14 07:02:06;;;;;;;3.80;2.00;;;4.70;84.70;;;;;;5056403;28;20123;-89
2020/12/14 07:04:32;;;;;;;3.13;2.20;;;4.70;84.50;;;;;;5055757;28;20021;-88
2020/12/14 07:07:23;;;;;;;3.57;1.90;;;4.60;84.50;;;;;;5055918;28;20428;-88
2020/12/14 07:09:49;;;;;;;3.03;1.57;;;4.70;84.50;;;;;;5055832;28;20028;-88
2020/12/14 07:12:18;;;;;;;5.87;1.90;;;4.70;84.60;;;;;;5073462;28;20281;-89
2020/12/14 07:14:54;;;;;;;2.40;1.77;;;4.70;84.50;;;;;;5055993;28;20063;-89
2020/12/14 07:17:22;;;;;;;2.53;1.80;;;4.70;84.90;;;;;;5056497;28;20119;-88
2020/12/14 07:19:52;;;;;;;6.00;2.10;;;4.70;84.60;;;;;;5055861;28;20453;-89
2020/12/14 07:22:48;;;;;;;3.57;2.03;;;4.80;84.50;;;;;;5055955;28;20393;-89
2020/12/14 07:25:22;;;;;;;3.00;1.43;;;4.80;84.20;;;;;;5054529;28;20111;-89
2020/12/14 07:27:47;;;;;;;3.83;1.97;;;4.80;84.00;;;;;;5055646;28;20041;-89
2020/12/14 07:30:13;;;;;;;3.60;1.90;;;4.90;84.00;;;;;;5073458;28;20020;-88
2020/12/14 07:32:40;;;;;;;5.90;2.03;;;4.90;83.80;;;;;;5055130;28;20481;-89
2020/12/14 07:35:07;;;;;;;4.17;2.07;;;4.90;83.70;;;;;;5055187;28;20064;-89
2020/12/14 07:37:34;;;;;;;4.20;2.00;;;4.90;83.70;;;;;;5056148;28;20538;-89
2020/12/14 07:40:01;;;;;;;3.30;2.10;;;4.90;83.70;;;;;;5059254;28;20105;-89
2020/12/14 07:42:32;;;;;;;3.50;2.00;;;5.00;83.60;;;;;;5058801;28;20040;-88
2020/12/14 07:45:14;;;;;;;3.33;2.07;;;5.00;83.40;;;;;;5059131;28;20047;-89
2020/12/14 07:47:41;;;;;;;3.03;1.92;;;5.00;83.40;;;;;;5058481;28;20130;-89
2020/12/14 07:50:12;;;;;;;3.37;2.00;;;5.00;83.50;;;;;;5059363;28;20492;-89
2020/12/14 07:52:39;;;;;;;7.47;2.20;;;5.00;83.20;;;;;;5058608;28;20041;-89
2020/12/14 07:55:07;;;;;;;4.50;2.20;;;4.90;83.40;;;;;;5058869;28;20171;-89
2020/12/14 07:57:54;;;;;;;3.43;2.13;;;5.00;83.50;;;;;;5058719;28;20037;-89
2020/12/14 08:00:22;;;;;;;5.80;2.60;;;5.00;83.60;;;;;;5058671;28;20125;-89
2020/12/14 08:02:49;;;;;;;4.93;2.37;;;5.00;83.50;;;;;;5059015;28;20032;-89
2020/12/14 08:05:19;;;;;;;5.50;2.60;;;5.10;83.60;;;;;;5059232;28;20046;-89
2020/12/14 08:07:53;;;;;;;4.37;2.43;;;5.10;83.40;;;;;;5058572;28;20020;-89
2020/12/14 08:10:29;;;;;;;5.20;2.50;;;5.10;83.80;;;;;;5058766;28;20024;-87
2020/12/14 08:12:55;;;;;;;4.27;2.53;;;5.20;83.60;;;;;;5059099;28;20041;-89
2020/12/14 08:15:22;;;;;;;3.90;2.40;;;5.20;83.60;;;;;;5058814;28;20069;-89
2020/12/14 08:17:49;;;;;;;4.37;2.47;;;5.20;83.30;;;;;;5058378;28;20063;-90
2020/12/14 08:20:27;;;;;;;4.33;2.10;;;5.20;83.50;;;;;;5058650;28;20072;-89
2020/12/14 08:22:53;;;;;;;4.90;2.17;;;5.20;83.50;;;;;;5058602;28;20029;-88
2020/12/14 08:25:23;;;;;;;3.90;2.10;;;5.30;83.60;;;;;;5058658;28;20028;-89
2020/12/14 08:27:49;;;;;;;5.03;2.20;;;5.30;83.10;;;;;;5053521;28;20111;-89
2020/12/14 08:30:17;;;;;;;3.97;2.30;;;5.30;83.00;;;;;;5058574;28;20037;-88
2020/12/14 08:32:43;;;;;;;4.90;3.07;;;5.40;83.50;;;;;;5057711;28;20024;-88
2020/12/14 08:35:23;;;;;;;5.40;2.50;;;5.40;83.70;;;;;;5058077;28;20573;-88
2020/12/14 08:37:51;;;;;;;4.23;2.80;;;5.40;83.40;;;;;;5057202;28;20029;-88
2020/12/14 08:40:17;;;;;;;3.43;2.17;;;5.40;83.20;;;;;;5057887;28;20515;-88
2020/12/14 08:42:43;;;;;;;3.90;2.10;;;5.50;83.50;;;;;;5057339;28;20035;-89
2020/12/14 08:45:12;;;;;;;3.63;2.27;;;5.50;83.20;;;;;;5076064;28;20025;-88
2020/12/14 08:47:39;;;;;;;3.13;2.03;;;5.60;83.10;;;;;;5057794;28;20060;-88
2020/12/14 08:50:07;;;;;;;3.80;2.10;;;5.60;83.20;;;;;;5057478;28;20078;-89
2020/12/14 08:52:34;;;;;;;4.07;2.23;;;5.70;83.10;;;;;;5074638;28;20043;-88
2020/12/14 08:54:59;;;;;;;3.93;2.13;;;5.70;83.00;;;;;;5057955;28;20124;-89
2020/12/14 08:57:30;;;;;;;5.87;2.33;;;5.80;82.80;;;;;;5057696;28;20063;-88
2020/12/14 09:00:10;;;;;;;5.20;2.30;;;5.80;82.40;;;;;;5058163;28;20136;-88
2020/12/14 09:02:36;;;;;;;5.47;2.90;;;5.80;82.40;;;;;;5057087;28;20032;-88
2020/12/14 09:05:19;;;;;;;3.93;2.53;;;5.90;82.20;;;;;;5057831;28;20423;-88
2020/12/14 09:07:46;;;;;;;3.80;2.50;;;5.90;82.00;;;;;;5057629;28;20078;-88
2020/12/14 09:10:28;;;;;;;5.57;2.50;;;6.00;82.70;;;;;;5056909;28;20025;-88
2020/12/14 09:13:04;;;;;;;6.15;2.85;;;6.00;82.50;;;;;;5075611;28;20039;-88
2020/12/14 09:15:31;;;;;;;3.53;1.80;;;6.10;82.10;;;;;;5057444;28;20029;-87
2020/12/14 09:18:04;;;;;;;4.83;2.40;;;6.10;82.20;;;;;;5075434;28;20025;-88
2020/12/14 09:20:34;;;;;;;5.27;2.80;;;6.20;82.20;;;;;;5056282;28;20123;-87
2020/12/14 09:23:00;;;;;;;6.70;2.40;;;6.20;81.40;;;;;;5057437;28;20035;-87
2020/12/14 09:25:27;;;;;;;4.10;2.57;;;6.10;81.60;;;;;;5057370;28;20119;-87
2020/12/14 09:27:52;;;;;;;3.77;2.23;;;6.20;81.70;;;;;;5056912;28;20035;-87
2020/12/14 09:30:18;;;;;;;3.40;2.30;;;6.20;81.00;;;;;;5057026;28;20020;-85
2020/12/14 09:32:44;;;;;;;4.10;2.37;;;6.20;81.00;;;;;;5056946;28;20033;-87
2020/12/14 09:35:10;;;;;;;3.03;2.00;;;6.20;81.10;;;;;;5057175;28;20088;-86
2020/12/14 09:37:36;;;;;;;3.73;2.43;;;6.30;81.10;;;;;;5056908;28;20099;-87
2020/12/14 09:40:02;;;;;;;5.60;2.40;;;6.30;81.00;;;;;;5056574;28;20555;-88
2020/12/14 09:42:28;;;;;;;4.63;2.17;;;6.40;81.00;;;;;;5056646;28;20032;-88
2020/12/14 09:44:56;;;;;;;6.17;2.30;;;6.40;81.10;;;;;;5057094;28;20047;-89
2020/12/14 09:47:22;;;;;;;4.77;2.53;;;6.50;81.00;;;;;;5074772;28;20043;-88
2020/12/14 09:49:48;;;;;;;3.73;1.87;;;6.50;81.20;;;;;;5056135;28;20066;-88
2020/12/14 09:52:14;;;;;;;5.00;2.27;;;6.60;80.90;;;;;;5074694;28;20060;-89
2020/12/14 09:54:39;;;;;;;4.20;2.30;;;6.60;80.90;;;;;;5074234;28;20040;-88
2020/12/14 09:57:05;;;;;;;14.77;6.97;;;6.60;80.50;;;;;;5056571;28;20039;-88
2020/12/14 09:59:31;;;;;;;5.30;2.80;;;6.70;80.50;;;;;;5074893;28;20098;-86
2020/12/14 10:01:57;;;;;;;5.97;2.67;;;6.70;79.70;;;;;;5057927;28;20102;-89
2020/12/14 10:04:23;;;;;;;5.83;2.47;;;6.60;79.10;;;;;;5057410;28;20028;-89
2020/12/14 10:06:49;;;;;;;5.63;2.20;;;6.70;79.00;;;;;;5056393;28;20044;-90
2020/12/14 10:09:16;;;;;;;4.97;2.13;;;6.70;78.60;;;;;;5057283;28;20028;-89
2020/12/14 10:11:43;;;;;;;7.97;2.53;;;6.80;78.50;;;;;;5057403;28;20381;-88
2020/12/14 10:14:09;;;;;;;5.43;2.50;;;6.80;78.30;;;;;;5058108;28;20492;-89
2020/12/14 10:16:36;;;;;;;5.13;2.63;;;6.80;78.00;;;;;;5057714;28;20020;-88
2020/12/14 10:19:03;;;;;;;7.40;2.70;;;6.90;77.80;;;;;;5056577;28;20032;-88
2020/12/14 10:21:29;;;;;;;9.70;2.57;;;6.90;77.80;;;;;;5057196;28;20086;-89
2020/12/14 10:23:55;;;;;;;3.97;2.43;;;7.00;77.70;;;;;;5056973;28;20431;-90
2020/12/14 10:26:21;;;;;;;7.13;2.87;;;7.00;77.80;;;;;;5074741;28;20033;-87
2020/12/14 10:28:47;;;;;;;6.17;2.43;;;7.10;77.80;;;;;;5056634;28;20025;-89
2020/12/14 10:31:14;;;;;;;9.30;2.97;;;7.10;78.00;;;;;;5056874;28;20094;-90
2020/12/14 10:33:45;;;;;;;4.53;2.50;;;7.10;77.60;;;;;;5056448;28;20063;-88
2020/12/14 10:36:15;;;;;;;5.67;2.60;;;7.20;77.40;;;;;;5056996;28;20044;-88
2020/12/14 10:38:41;;;;;;;5.20;2.47;;;7.20;77.60;;;;;;5056484;28;20401;-89
2020/12/14 10:41:07;;;;;;;9.33;2.93;;;7.30;77.60;;;;;;5056809;28;20096;-90
2020/12/14 10:43:33;;;;;;;7.37;2.97;;;7.40;77.50;;;;;;5057296;28;20029;-89
2020/12/14 10:45:59;;;;;;;6.73;3.00;;;7.40;76.90;;;;;;5057229;28;20024;-88
2020/12/14 10:48:27;;;;;;;13.30;3.53;;;7.30;76.10;;;;;;5057904;28;20024;-90
2020/12/14 10:50:53;;;;;;;9.33;3.30;;;7.30;76.00;;;;;;5056470;28;20036;-88
2020/12/14 10:53:19;;;;;;;7.20;3.07;;;7.30;76.00;;;;;;5056716;28;20427;-89
2020/12/14 10:55:45;;;;;;;8.20;2.97;;;7.20;75.90;;;;;;5056235;28;20029;-90
2020/12/14 10:58:11;;;;;;;7.70;3.20;;;7.30;75.90;;;;;;5056855;28;20123;-88
2020/12/14 11:00:37;;;;;;;7.60;3.40;;;7.30;75.70;;;;;;5056568;28;20111;-89
2020/12/14 11:03:03;;;;;;;8.03;2.87;;;7.30;76.30;;;;;;5057248;28;20021;-89
2020/12/14 11:05:30;;;;;;;6.50;3.13;;;7.40;77.10;;;;;;5076357;28;20020;-89
2020/12/14 11:07:56;;;;;;;6.47;3.23;;;7.30;76.50;;;;;;5058895;28;20028;-89
2020/12/14 11:10:23;;;;;;;11.47;3.50;;;7.40;77.10;;;;;;5059569;28;20047;-90
2020/12/14 11:12:49;;;;;;;5.37;3.17;;;7.40;76.40;;;;;;5060985;28;20029;-90
2020/12/14 11:15:15;;;;;;;7.17;3.10;;;7.40;76.50;;;;;;5060883;28;20024;-90
2020/12/14 11:17:44;;;;;;;5.10;2.67;;;7.40;76.40;;;;;;5078086;28;20028;-90
2020/12/14 11:20:10;;;;;;;7.13;2.90;;;7.40;76.70;;;;;;5063144;28;20051;-91
2020/12/14 11:22:36;;;;;;;5.17;2.80;;;7.40;77.10;;;;;;5079811;28;20024;-89
2020/12/14 11:25:05;;;;;;;4.63;2.50;;;7.40;76.70;;;;;;5061663;28;20090;-90
2020/12/14 11:27:31;;;;;;;5.83;2.63;;;7.40;76.50;;;;;;5061651;28;20033;-90
2020/12/14 11:29:57;;;;;;;4.77;2.63;;;7.50;76.50;;;;;;5078770;28;20029;-89
2020/12/14 11:32:23;;;;;;;5.13;3.20;;;7.50;76.70;;;;;;5041313;28;20413;-89
2020/12/14 11:34:50;;;;;;;6.13;3.43;;;7.60;77.00;;;;;;5029865;28;20099;-89
2020/12/14 11:37:17;;;;;;;5.37;2.80;;;7.80;76.90;;;;;;5034365;28;20025;-90
2020/12/14 11:39:43;;;;;;;5.80;2.57;;;7.80;76.00;;;;;;5029985;28;20127;-90
2020/12/14 11:42:09;;;;;;;7.60;2.50;;;7.90;75.80;;;;;;5037292;28;20034;-89
2020/12/14 11:44:34;;;;;;;6.13;2.73;;;8.00;75.80;;;;;;5035572;28;20033;-88
2020/12/14 11:47:00;;;;;;;5.33;2.77;;;8.10;75.80;;;;;;5035747;28;20359;-88
2020/12/14 11:49:26;;;;;;;6.07;2.90;;;8.10;75.40;;;;;;5036137;28;20026;-88
2020/12/14 11:51:51;;;;;;;5.63;2.70;;;8.20;75.50;;;;;;5018923;28;20039;-87
2020/12/14 11:54:17;;;;;;;7.33;2.90;;;8.20;74.90;;;;;;5029835;28;20085;-87
2020/12/14 11:56:46;;;;;;;6.33;2.80;;;8.30;74.50;;;;;;5033914;28;20104;-87
2020/12/14 11:59:13;;;;;;;4.30;2.90;;;8.30;75.00;;;;;;5036618;28;20030;-89
2020/12/14 12:01:39;;;;;;;3.90;2.70;;;8.40;74.40;;;;;;5036325;28;20025;-88
2020/12/14 12:04:05;;;;;;;3.83;2.20;;;8.50;74.00;;;;;;5036082;28;20030;-88
2020/12/14 12:06:31;;;;;;;6.30;2.50;;;8.60;73.60;;;;;;5035834;28;20021;-88
2020/12/14 12:08:57;;;;;;;5.00;2.63;;;8.80;73.20;;;;;;5036353;28;20033;-88
2020/12/14 12:11:23;;;;;;;5.33;2.40;;;8.80;72.90;;;;;;5035741;28;20493;-87
2020/12/14 12:13:49;;;;;;;4.05;2.28;;;8.90;72.70;;;;;;5035029;28;20029;-88
2020/12/14 12:16:15;;;;;;;4.40;2.05;;;9.00;72.50;;;;;;5036515;28;20025;-88
2020/12/14 12:18:42;;;;;;;4.83;2.20;;;8.90;72.40;;;;;;5035302;28;20462;-87
2020/12/14 12:21:09;;;;;;;3.90;2.40;;;8.90;72.40;;;;;;5036551;28;20025;-86
2020/12/14 12:23:35;;;;;;;4.65;2.63;;;8.90;72.80;;;;;;5035636;28;20026;-87
2020/12/14 12:26:02;;;;;;;4.20;2.47;;;8.90;72.90;;;;;;5035839;28;20088;-87
2020/12/14 12:28:27;;;;;;;4.25;2.22;;;8.90;72.60;;;;;;5036479;28;20080;-87
2020/12/14 12:30:53;;;;;;;3.72;1.90;;;8.90;72.90;;;;;;5034658;28;20041;-87
2020/12/14 12:33:19;;;;;;;4.63;2.20;;;8.80;72.40;;;;;;5035207;28;20032;-87
2020/12/14 12:35:44;;;;;;;5.17;2.07;;;8.80;72.30;;;;;;5035917;28;20060;-87
2020/12/14 12:38:10;;;;;;;3.70;1.75;;;8.70;72.80;;;;;;5035330;28;20487;-87
2020/12/14 12:40:36;;;;;;;3.33;1.67;;;8.70;72.50;;;;;;5038639;28;20048;-87
2020/12/14 12:43:02;;;;;;;4.03;1.90;;;8.70;72.60;;;;;;5055599;28;20033;-88
2020/12/14 12:45:27;;;;;;;3.75;1.90;;;8.70;72.90;;;;;;5038215;28;20047;-87
2020/12/14 12:47:53;;;;;;;2.90;2.00;;;8.80;72.60;;;;;;5037622;28;20484;-87
2020/12/14 12:50:19;;;;;;;3.63;1.88;;;8.70;72.10;;;;;;5055795;28;20029;-86
2020/12/14 12:52:44;;;;;;;3.28;1.80;;;8.70;71.90;;;;;;5037606;28;20041;-87
2020/12/14 12:55:10;;;;;;;4.70;1.93;;;8.70;71.70;;;;;;5038295;28;20033;-87
2020/12/14 12:57:37;;;;;;;4.60;1.80;;;8.80;72.00;;;;;;5038202;28;20474;-88
2020/12/14 13:00:04;;;;;;;4.22;1.70;;;8.80;71.80;;;;;;5055214;28;20025;-88